createdAt,value
2022-08-28T00:00:56.525Z,10.30
2022-08-28T00:03:24.770Z,11.80
2022-08-28T00:05:53.967Z,14.00
2022-08-28T00:08:22.550Z,10.40
2022-08-28T00:10:50.671Z,9.90
2022-08-28T00:13:21.613Z,10.60
2022-08-28T00:15:54.790Z,13.40
2022-08-28T00:18:23.438Z,12.70
2022-08-28T00:20:52.333Z,12.40
2022-08-28T00:23:21.455Z,12.30
2022-08-28T00:25:49.804Z,15.80
2022-08-28T00:28:27.500Z,11.70
2022-08-28T00:31:05.371Z,10.80
2022-08-28T00:33:35.013Z,12.40
2022-08-28T00:36:05.008Z,15.30
2022-08-28T00:38:33.454Z,12.20
2022-08-28T00:41:04.823Z,10.30
2022-08-28T00:43:37.742Z,14.80
2022-08-28T00:46:10.892Z,15.30
2022-08-28T00:48:39.414Z,14.70
2022-08-28T00:51:27.351Z,11.20
2022-08-28T00:53:58.934Z,16.10
2022-08-28T00:56:30.320Z,13.70
2022-08-28T00:59:03.957Z,14.50
2022-08-28T01:01:32.605Z,14.10
2022-08-28T01:04:02.557Z,18.90
2022-08-28T01:06:30.731Z,11.30
2022-08-28T01:08:59.119Z,16.20
2022-08-28T01:11:29.165Z,16.50
2022-08-28T01:14:01.933Z,17.80
2022-08-28T01:16:34.485Z,17.10
2022-08-28T01:19:10.340Z,13.50
2022-08-28T01:21:50.086Z,15.40
2022-08-28T01:24:19.399Z,14.00
2022-08-28T01:26:47.500Z,14.90
2022-08-28T01:29:16.246Z,19.40
2022-08-28T01:31:44.523Z,16.50
2022-08-28T01:34:13.622Z,15.30
2022-08-28T01:36:42.816Z,18.40
2022-08-28T01:39:15.701Z,15.10
2022-08-28T01:41:47.583Z,17.60
2022-08-28T01:44:17.993Z,21.20
2022-08-28T01:46:46.809Z,15.60
2022-08-28T01:49:15.670Z,13.50
2022-08-28T01:51:43.942Z,15.70
2022-08-28T01:54:13.755Z,21.40
2022-08-28T01:56:44.799Z,14.90
2022-08-28T01:59:14.916Z,17.70
2022-08-28T02:01:44.651Z,16.70
2022-08-28T02:04:13.338Z,15.70
2022-08-28T02:06:42.100Z,15.90
2022-08-28T02:09:14.391Z,17.00
2022-08-28T02:11:44.369Z,14.70
2022-08-28T02:14:15.770Z,14.30
2022-08-28T02:16:44.114Z,20.80
2022-08-28T02:19:12.595Z,14.10
2022-08-28T02:21:41.281Z,16.20
2022-08-28T02:24:10.039Z,16.10
2022-08-28T02:26:39.200Z,17.00
2022-08-28T02:29:07.347Z,15.70
2022-08-28T02:31:35.514Z,15.40
2022-08-28T02:34:05.076Z,11.80
2022-08-28T02:36:34.048Z,17.70
2022-08-28T02:39:02.699Z,15.70
2022-08-28T02:41:31.180Z,18.70
2022-08-28T02:43:59.866Z,14.20
2022-08-28T02:46:28.503Z,16.00
2022-08-28T02:48:57.034Z,13.00
2022-08-28T02:51:25.563Z,17.60
2022-08-28T02:53:53.789Z,15.30
2022-08-28T02:56:22.066Z,16.90
2022-08-28T02:58:50.186Z,12.90
2022-08-28T03:01:18.454Z,15.60
2022-08-28T03:03:46.690Z,12.40
2022-08-28T03:06:14.865Z,15.00
2022-08-28T03:08:43.960Z,14.80
2022-08-28T03:11:12.499Z,11.20
2022-08-28T03:13:42.153Z,13.40
2022-08-28T03:16:11.441Z,17.10
2022-08-28T03:18:40.190Z,13.20
2022-08-28T03:21:08.994Z,14.60
2022-08-28T03:23:37.842Z,10.50
2022-08-28T03:26:12.033Z,17.10
2022-08-28T03:28:45.327Z,13.70
2022-08-28T03:31:16.544Z,16.40
2022-08-28T03:33:46.110Z,14.30
2022-08-28T03:36:18.553Z,14.40
2022-08-28T03:38:46.726Z,17.80
2022-08-28T03:41:18.075Z,13.70
2022-08-28T03:43:46.815Z,12.70
2022-08-28T03:46:25.307Z,12.50
2022-08-28T03:48:55.090Z,15.70
2022-08-28T03:51:29.520Z,13.60
2022-08-28T03:53:59.807Z,12.50
2022-08-28T03:56:30.166Z,12.70
2022-08-28T03:59:01.142Z,12.90
2022-08-28T04:01:29.401Z,13.60
2022-08-28T04:03:57.857Z,11.50
2022-08-28T04:06:28.282Z,16.00
2022-08-28T04:09:00.209Z,11.40
2022-08-28T04:11:29.430Z,12.50
2022-08-28T04:13:58.164Z,16.10
2022-08-28T04:16:26.435Z,15.10
2022-08-28T04:18:54.886Z,9.60
2022-08-28T04:21:26.209Z,10.40
2022-08-28T04:23:55.003Z,12.90
2022-08-28T04:26:26.780Z,12.00
2022-08-28T04:31:31.786Z,11.90
2022-08-28T04:34:06.253Z,7.60
2022-08-28T04:36:35.655Z,10.20
2022-08-28T04:39:08.819Z,12.20
2022-08-28T04:41:38.856Z,10.10
2022-08-28T04:44:07.500Z,9.20
2022-08-28T04:46:36.688Z,7.60
2022-08-28T04:49:06.170Z,10.90
2022-08-28T04:51:34.923Z,10.60
2022-08-28T04:54:05.161Z,9.70
2022-08-28T04:56:33.950Z,11.50
2022-08-28T04:59:03.500Z,7.10
2022-08-28T05:01:31.948Z,6.40
2022-08-28T05:04:03.010Z,7.90
2022-08-28T05:06:33.200Z,8.60
2022-08-28T05:09:03.627Z,12.00
2022-08-28T05:11:34.221Z,19.10
2022-08-28T05:14:06.561Z,12.70
2022-08-28T05:16:42.710Z,11.40
2022-08-28T05:19:11.681Z,12.60
2022-08-28T05:21:39.805Z,14.10
2022-08-28T05:24:08.331Z,14.60
2022-08-28T05:26:40.029Z,11.50
2022-08-28T05:29:08.856Z,10.10
2022-08-28T05:31:39.483Z,12.10
2022-08-28T05:34:08.176Z,11.60
2022-08-28T05:36:39.142Z,11.20
2022-08-28T05:39:10.078Z,12.20
2022-08-28T05:41:41.679Z,9.10
2022-08-28T05:44:12.776Z,9.20
2022-08-28T05:46:44.676Z,12.40
2022-08-28T05:49:13.939Z,9.70
2022-08-28T05:51:42.873Z,11.90
2022-08-28T05:54:11.899Z,11.30
2022-08-28T05:56:41.428Z,10.50
2022-08-28T05:59:11.137Z,10.20
2022-08-28T06:01:42.802Z,11.70
2022-08-28T06:04:14.806Z,13.10
2022-08-28T06:06:43.954Z,12.90
2022-08-28T06:09:12.025Z,10.80
2022-08-28T06:11:44.552Z,12.90
2022-08-28T06:14:15.717Z,9.40
2022-08-28T06:16:49.247Z,10.50
2022-08-28T06:19:18.238Z,11.30
2022-08-28T06:21:48.459Z,10.40
2022-08-28T06:24:16.635Z,9.00
2022-08-28T06:26:46.344Z,11.00
2022-08-28T06:29:17.589Z,9.40
2022-08-28T06:31:59.243Z,8.50
2022-08-28T06:34:28.921Z,10.90
2022-08-28T06:36:57.062Z,10.40
2022-08-28T06:39:25.236Z,11.30
2022-08-28T06:41:54.026Z,8.60
2022-08-28T06:44:22.608Z,10.40
2022-08-28T06:46:54.058Z,9.30
2022-08-28T06:49:22.642Z,8.70
2022-08-28T06:51:51.432Z,8.80
2022-08-28T06:54:23.140Z,9.00
2022-08-28T06:56:53.002Z,8.60
2022-08-28T06:59:21.380Z,11.00
2022-08-28T07:01:49.719Z,14.10
2022-08-28T07:04:18.035Z,11.50
2022-08-28T07:06:52.798Z,9.30
2022-08-28T07:09:23.755Z,9.80
2022-08-28T07:11:53.004Z,11.60
2022-08-28T07:14:21.691Z,10.00
2022-08-28T07:16:50.408Z,12.40
2022-08-28T07:19:20.199Z,9.20
2022-08-28T07:21:48.564Z,8.40
2022-08-28T07:24:17.712Z,10.70
2022-08-28T07:26:47.984Z,9.50
2022-08-28T07:29:17.134Z,12.10
2022-08-28T07:31:49.453Z,13.00
2022-08-28T07:34:20.904Z,13.00
2022-08-28T07:36:52.398Z,11.90
2022-08-28T07:41:48.616Z,10.90
2022-08-28T07:44:35.745Z,12.00
2022-08-28T07:47:06.144Z,11.40
2022-08-28T07:49:37.166Z,12.00
2022-08-28T07:52:07.682Z,12.70
2022-08-28T07:54:37.185Z,13.30
2022-08-28T07:57:06.986Z,14.50
2022-08-28T07:59:38.175Z,13.50
2022-08-28T08:02:07.452Z,11.70
2022-08-28T08:04:35.547Z,9.80
2022-08-28T08:07:04.856Z,10.40
2022-08-28T08:09:38.780Z,14.30
2022-08-28T08:12:07.852Z,11.80
2022-08-28T08:14:40.492Z,10.30
2022-08-28T08:17:10.594Z,12.70
2022-08-28T08:19:39.579Z,12.30
2022-08-28T08:22:09.768Z,10.90
2022-08-28T08:24:37.806Z,11.90
2022-08-28T08:27:06.941Z,11.80
2022-08-28T08:29:37.974Z,11.80
2022-08-28T08:32:09.731Z,13.20
2022-08-28T08:34:40.773Z,11.70
2022-08-28T08:37:09.461Z,18.80
2022-08-28T08:39:38.347Z,10.50
2022-08-28T08:42:29.528Z,12.30
2022-08-28T08:45:00.503Z,12.90
2022-08-28T08:47:43.772Z,13.40
2022-08-28T08:50:18.968Z,11.10
2022-08-28T08:53:01.683Z,11.00
2022-08-28T08:55:35.846Z,12.00
2022-08-28T08:58:14.247Z,12.10
2022-08-28T09:01:10.125Z,10.50
2022-08-28T09:04:03.294Z,13.30
2022-08-28T09:06:57.581Z,14.50
2022-08-28T09:09:28.519Z,12.90
2022-08-28T09:12:06.504Z,10.60
2022-08-28T09:14:49.954Z,10.00
2022-08-28T09:17:48.236Z,11.30
2022-08-28T09:20:29.119Z,9.70
2022-08-28T09:23:02.167Z,9.00
2022-08-28T09:25:53.717Z,13.80
2022-08-28T09:28:31.729Z,10.90
2022-08-28T09:31:09.578Z,10.20
2022-08-28T09:33:48.859Z,8.00
2022-08-28T09:36:25.837Z,9.20
2022-08-28T09:39:21.866Z,10.90
2022-08-28T09:42:16.253Z,8.30
2022-08-28T09:45:21.504Z,10.90
2022-08-28T09:47:51.309Z,11.60
2022-08-28T09:50:25.421Z,9.40
2022-08-28T09:52:57.079Z,8.30
2022-08-28T09:55:37.847Z,8.30
2022-08-28T09:58:06.839Z,8.60
2022-08-28T10:00:41.362Z,7.80
2022-08-28T10:03:18.548Z,9.60
2022-08-28T10:06:03.515Z,10.60
2022-08-28T10:09:04.050Z,10.30
2022-08-28T10:12:11.646Z,12.00
2022-08-28T10:15:01.221Z,8.90
2022-08-28T10:17:57.351Z,13.10
2022-08-28T10:20:37.813Z,5.80
2022-08-28T10:23:36.914Z,9.90
2022-08-28T10:26:30.482Z,6.10
2022-08-28T10:29:23.129Z,10.00
2022-08-28T10:32:13.113Z,8.60
2022-08-28T10:34:47.228Z,8.60
2022-08-28T10:37:33.880Z,7.80
2022-08-28T10:40:14.080Z,6.60
2022-08-28T10:43:00.902Z,8.10
2022-08-28T10:45:32.352Z,6.80
2022-08-28T10:48:34.058Z,9.30
2022-08-28T10:51:12.119Z,8.30
2022-08-28T10:53:46.437Z,7.60
2022-08-28T10:56:30.897Z,11.80
2022-08-28T10:58:59.601Z,7.80
2022-08-28T11:01:32.495Z,7.50
2022-08-28T11:04:06.907Z,10.80
2022-08-28T11:06:43.865Z,9.60
2022-08-28T11:09:30.981Z,7.80
2022-08-28T11:12:03.661Z,8.70
2022-08-28T11:14:56.412Z,12.40
2022-08-28T11:17:28.169Z,6.50
2022-08-28T11:20:11.294Z,10.10
2022-08-28T11:22:48.787Z,8.60
2022-08-28T11:25:26.235Z,6.90
2022-08-28T11:28:15.445Z,10.10
2022-08-28T11:30:47.285Z,7.00
2022-08-28T11:33:40.568Z,7.00
2022-08-28T11:36:21.951Z,11.10
2022-08-28T11:38:53.304Z,7.10
2022-08-28T11:41:24.453Z,7.10
2022-08-28T11:44:04.598Z,9.90
2022-08-28T11:46:35.215Z,8.40
2022-08-28T11:49:26.758Z,6.30
2022-08-28T11:52:41.722Z,8.50
2022-08-28T11:55:45.328Z,8.50
2022-08-28T11:58:21.436Z,9.00
2022-08-28T12:00:58.878Z,7.80
2022-08-28T12:03:38.349Z,5.50
2022-08-28T12:06:08.744Z,6.10
2022-08-28T12:08:57.090Z,9.90
2022-08-28T12:11:40.316Z,8.00
2022-08-28T12:14:31.990Z,10.80
2022-08-28T12:17:00.216Z,7.20
2022-08-28T12:19:55.877Z,8.30
2022-08-28T12:22:50.223Z,6.00
2022-08-28T12:25:36.317Z,7.00
2022-08-28T12:28:29.272Z,9.90
2022-08-28T12:31:49.672Z,8.40
2022-08-28T12:34:53.097Z,5.80
2022-08-28T12:37:39.471Z,5.50
2022-08-28T12:40:29.111Z,5.10
2022-08-28T12:43:06.943Z,12.70
2022-08-28T12:45:40.275Z,6.30
2022-08-28T12:48:21.831Z,9.30
2022-08-28T12:53:27.908Z,6.20
2022-08-28T12:55:57.310Z,8.70
2022-08-28T12:58:35.110Z,5.50
2022-08-28T13:01:07.893Z,6.90
2022-08-28T13:03:57.160Z,8.00
2022-08-28T13:06:33.014Z,6.60
2022-08-28T13:09:05.531Z,5.80
2022-08-28T13:11:39.318Z,5.50
2022-08-28T13:14:08.905Z,6.20
2022-08-28T13:16:43.277Z,9.40
2022-08-28T13:19:25.322Z,6.00
2022-08-28T13:22:02.045Z,5.00
2022-08-28T13:24:39.285Z,5.80
2022-08-28T13:27:13.293Z,5.60
2022-08-28T13:30:00.014Z,7.90
2022-08-28T13:32:33.117Z,5.20
2022-08-28T13:35:13.146Z,4.30
2022-08-28T13:37:51.149Z,6.80
2022-08-28T13:40:57.366Z,5.30
2022-08-28T13:43:30.401Z,7.40
2022-08-28T13:45:58.621Z,4.90
2022-08-28T13:48:27.978Z,6.60
2022-08-28T13:51:10.392Z,7.80
2022-08-28T13:53:39.583Z,12.80
2022-08-28T13:56:07.642Z,9.10
2022-08-28T13:58:35.833Z,6.00
2022-08-28T14:01:05.360Z,5.60
2022-08-28T14:03:37.946Z,7.40
2022-08-28T14:06:11.984Z,6.60
2022-08-28T14:08:41.735Z,8.00
2022-08-28T14:11:12.601Z,6.20
2022-08-28T14:13:46.660Z,6.70
2022-08-28T14:16:17.085Z,6.40
2022-08-28T14:18:45.389Z,7.40
2022-08-28T14:21:14.177Z,6.20
2022-08-28T14:23:42.249Z,7.10
2022-08-28T14:26:10.422Z,6.40
2022-08-28T14:28:38.802Z,6.20
2022-08-28T14:31:12.299Z,6.30
2022-08-28T14:33:45.744Z,6.90
2022-08-28T14:36:23.495Z,7.90
2022-08-28T14:38:54.190Z,7.90
2022-08-28T14:41:24.246Z,6.00
2022-08-28T14:43:54.571Z,7.10
2022-08-28T14:46:26.878Z,7.30
2022-08-28T14:49:00.851Z,6.40
2022-08-28T14:51:32.305Z,7.00
2022-08-28T14:54:01.464Z,9.10
2022-08-28T14:56:31.067Z,8.20
2022-08-28T14:59:01.228Z,7.80
2022-08-28T15:01:39.562Z,5.70
2022-08-28T15:04:13.607Z,6.40
2022-08-28T15:06:43.055Z,7.40
2022-08-28T15:09:12.560Z,9.20
2022-08-28T15:11:41.483Z,5.50
2022-08-28T15:14:09.829Z,7.80
2022-08-28T15:16:41.283Z,7.00
2022-08-28T15:21:51.377Z,6.70
2022-08-28T15:24:22.003Z,4.80
2022-08-28T15:26:50.708Z,5.30
2022-08-28T15:29:19.116Z,6.00
2022-08-28T15:31:49.585Z,6.70
2022-08-28T15:34:28.314Z,6.40
2022-08-28T15:36:58.338Z,6.10
2022-08-28T15:39:47.788Z,7.80
2022-08-28T15:42:16.272Z,6.40
2022-08-28T15:44:44.799Z,9.20
2022-08-28T15:47:16.492Z,6.90
2022-08-28T15:49:49.989Z,7.20
2022-08-28T15:52:20.537Z,7.20
2022-08-28T15:54:49.847Z,6.50
2022-08-28T15:57:19.956Z,7.70
2022-08-28T15:59:49.885Z,4.70
2022-08-28T16:04:49.730Z,7.30
2022-08-28T16:07:19.103Z,9.40
2022-08-28T16:09:47.585Z,8.30
2022-08-28T16:12:15.740Z,5.70
2022-08-28T16:14:43.805Z,5.90
2022-08-28T16:17:12.313Z,7.30
2022-08-28T16:19:41.406Z,6.00
2022-08-28T16:22:11.940Z,7.10
2022-08-28T16:24:40.054Z,9.40
2022-08-28T16:27:11.925Z,9.90
2022-08-28T16:29:45.258Z,10.60
2022-08-28T16:32:13.541Z,8.00
2022-08-28T16:34:44.529Z,7.80
2022-08-28T16:37:13.436Z,8.30
2022-08-28T16:39:46.869Z,6.70
2022-08-28T16:42:15.758Z,7.40
2022-08-28T16:44:43.933Z,9.60
2022-08-28T16:47:12.092Z,7.00
2022-08-28T16:49:40.281Z,8.60
2022-08-28T16:52:08.454Z,8.10
2022-08-28T16:54:36.732Z,6.80
2022-08-28T16:57:07.673Z,6.80
2022-08-28T16:59:40.145Z,6.40
2022-08-28T17:02:08.484Z,6.90
2022-08-28T17:04:41.920Z,10.00
2022-08-28T17:07:10.095Z,7.70
2022-08-28T17:09:38.219Z,7.50
2022-08-28T17:12:07.158Z,9.70
2022-08-28T17:14:35.607Z,6.70
2022-08-28T17:17:04.603Z,6.70
2022-08-28T17:19:33.216Z,8.70
2022-08-28T17:22:20.744Z,13.40
2022-08-28T17:24:50.877Z,9.40
2022-08-28T17:27:22.450Z,10.30
2022-08-28T17:29:51.546Z,11.00
2022-08-28T17:32:20.915Z,8.40
2022-08-28T17:34:50.152Z,9.80
2022-08-28T17:37:20.950Z,7.20
2022-08-28T17:39:49.226Z,8.70
2022-08-28T17:42:17.624Z,6.70
2022-08-28T17:44:46.397Z,9.00
2022-08-28T17:47:15.079Z,11.10
2022-08-28T17:49:43.459Z,7.70
2022-08-28T17:52:11.632Z,8.50
2022-08-28T17:54:42.163Z,17.00
2022-08-28T17:57:10.335Z,6.80
2022-08-28T17:59:38.518Z,7.40
2022-08-28T18:02:07.212Z,13.60
2022-08-28T18:04:36.375Z,7.30
2022-08-28T18:07:04.572Z,7.00
2022-08-28T18:09:32.741Z,8.90
2022-08-28T18:12:01.120Z,6.60
2022-08-28T18:14:29.293Z,9.20
2022-08-28T18:16:57.469Z,8.90
2022-08-28T18:19:25.642Z,8.00
2022-08-28T18:21:54.636Z,7.90
2022-08-28T18:24:22.911Z,6.60
2022-08-28T18:26:53.136Z,10.90
2022-08-28T18:29:24.791Z,8.50
2022-08-28T18:31:53.579Z,8.10
2022-08-28T18:34:21.752Z,7.70
2022-08-28T18:36:49.871Z,8.40
2022-08-28T18:39:29.570Z,10.00
2022-08-28T18:41:58.663Z,8.50
2022-08-28T18:44:26.940Z,9.10
2022-08-28T18:46:55.210Z,11.20
2022-08-28T18:49:23.494Z,9.30
2022-08-28T18:51:51.565Z,7.20
2022-08-28T18:54:21.377Z,8.20
2022-08-28T18:59:19.466Z,8.90
2022-08-28T19:01:47.834Z,8.90
2022-08-28T19:04:16.121Z,9.60
2022-08-28T19:06:44.462Z,11.50
2022-08-28T19:09:20.409Z,10.40
2022-08-28T19:11:49.145Z,10.50
2022-08-28T19:14:17.316Z,9.90
2022-08-28T19:16:45.821Z,9.40
2022-08-28T19:19:14.292Z,8.50
2022-08-28T19:21:42.452Z,7.50
2022-08-28T19:24:10.730Z,8.60
2022-08-28T19:26:38.903Z,9.30
2022-08-28T19:29:07.589Z,8.10
2022-08-28T19:31:37.947Z,9.00
2022-08-28T19:34:08.038Z,8.80
2022-08-28T19:36:36.314Z,9.80
2022-08-28T19:39:06.020Z,7.70
2022-08-28T19:41:34.733Z,10.10
2022-08-28T19:44:04.825Z,8.50
2022-08-28T19:46:35.206Z,7.00
2022-08-28T19:49:05.065Z,8.40
2022-08-28T19:51:34.469Z,7.00
2022-08-28T19:54:04.075Z,7.50
2022-08-28T19:56:35.321Z,9.60
2022-08-28T19:59:06.465Z,9.20
2022-08-28T20:01:39.407Z,8.30
2022-08-28T20:04:08.913Z,9.10
2022-08-28T20:06:37.540Z,8.40
2022-08-28T20:09:10.639Z,8.70
2022-08-28T20:11:42.411Z,8.60
2022-08-28T20:14:10.998Z,10.10
2022-08-28T20:16:41.806Z,9.60
2022-08-28T20:19:12.747Z,6.70
2022-08-28T20:21:44.619Z,7.70
2022-08-28T20:24:15.443Z,9.50
2022-08-28T20:26:43.986Z,9.70
2022-08-28T20:29:12.508Z,8.10
2022-08-28T20:31:42.863Z,10.70
2022-08-28T20:34:12.848Z,11.20
2022-08-28T20:36:41.127Z,7.60
2022-08-28T20:39:10.345Z,9.60
2022-08-28T20:41:40.545Z,10.50
2022-08-28T20:44:11.177Z,10.40
2022-08-28T20:46:41.623Z,9.10
2022-08-28T20:49:11.828Z,9.00
2022-08-28T20:51:56.684Z,9.40
2022-08-28T20:54:46.266Z,11.90
2022-08-28T20:57:18.379Z,11.80
2022-08-28T20:59:47.645Z,10.30
2022-08-28T21:02:22.383Z,10.80
2022-08-28T21:04:52.072Z,8.80
2022-08-28T21:07:23.316Z,11.20
2022-08-28T21:10:05.231Z,10.70
2022-08-28T21:12:38.013Z,11.30
2022-08-28T21:15:08.571Z,9.70
2022-08-28T21:17:37.106Z,11.00
2022-08-28T21:20:15.418Z,8.60
2022-08-28T21:22:43.694Z,12.40
2022-08-28T21:25:13.577Z,9.80
2022-08-28T21:27:43.234Z,10.40
2022-08-28T21:30:14.510Z,12.10
2022-08-28T21:32:42.944Z,15.10
2022-08-28T21:35:13.473Z,9.40
2022-08-28T21:37:41.956Z,9.50
2022-08-28T21:40:12.693Z,11.50
2022-08-28T21:42:41.829Z,11.20
2022-08-28T21:45:12.217Z,10.50
2022-08-28T21:47:41.897Z,11.60
2022-08-28T21:50:11.249Z,11.40
2022-08-28T21:52:40.586Z,9.80
2022-08-28T21:55:12.238Z,11.50
2022-08-28T21:57:40.760Z,10.10
2022-08-28T22:00:17.474Z,11.30
2022-08-28T22:02:46.555Z,10.30
2022-08-28T22:05:15.523Z,10.60
2022-08-28T22:07:45.335Z,12.80
2022-08-28T22:10:14.260Z,12.70
2022-08-28T22:12:42.399Z,11.20
2022-08-28T22:15:10.947Z,10.50
2022-08-28T22:17:39.162Z,11.80
2022-08-28T22:20:08.323Z,9.60
2022-08-28T22:22:55.474Z,10.00
2022-08-28T22:25:23.749Z,10.00
2022-08-28T22:27:51.924Z,10.10
2022-08-28T22:30:20.302Z,10.80
2022-08-28T22:32:48.421Z,10.30
2022-08-28T22:35:16.551Z,10.40
2022-08-28T22:37:45.030Z,11.80
2022-08-28T22:40:13.924Z,11.30
2022-08-28T22:42:42.913Z,9.50
2022-08-28T22:45:11.302Z,11.60
2022-08-28T22:47:39.977Z,10.40
2022-08-28T22:50:09.363Z,13.90
2022-08-28T22:52:38.479Z,12.30
2022-08-28T22:55:12.609Z,9.80
2022-08-28T22:57:41.176Z,9.90
2022-08-28T23:00:13.171Z,10.70
2022-08-28T23:02:42.671Z,11.20
2022-08-28T23:05:11.019Z,9.60
2022-08-28T23:07:39.192Z,12.10
2022-08-28T23:10:08.860Z,10.20
2022-08-28T23:12:37.486Z,10.30
2022-08-28T23:15:10.085Z,10.10
2022-08-28T23:17:38.445Z,10.60
2022-08-28T23:20:12.289Z,13.80
2022-08-28T23:22:40.468Z,13.20
2022-08-28T23:25:13.205Z,11.40
2022-08-28T23:27:42.249Z,13.80
2022-08-28T23:30:11.863Z,13.80
2022-08-28T23:32:40.532Z,13.40
2022-08-28T23:35:11.637Z,14.10
2022-08-28T23:37:41.885Z,11.70
2022-08-28T23:40:17.193Z,16.60
2022-08-28T23:42:46.704Z,12.40
2022-08-28T23:45:18.464Z,16.40
2022-08-28T23:47:47.536Z,18.70
2022-08-28T23:50:20.033Z,15.90
2022-08-28T23:52:49.645Z,18.40
2022-08-28T23:55:20.301Z,20.40
2022-08-28T23:57:52.277Z,23.00
